Time;durP1;ratioP1;P1;durP2;ratioP2;P2;SDS_P1;SDS_P2;PMS_P1;PMS_P2;Temp;Humidity;BMP_temperature;BMP_pressure;BME280_temperature;BME280_humidity;BME280_pressure;Samples;Min_cycle;Max_cycle;Signal;HPM_P1;HPM_P2
2021/03/11 00:01:06;;;;;;;68.60;37.47;;;7.20;99.90;;;;;;5109350;28;20201;-79
2021/03/11 00:03:32;;;;;;;68.22;38.33;;;7.20;99.90;;;;;;5109027;28;20231;-78
2021/03/11 00:05:59;;;;;;;69.80;38.80;;;7.20;99.90;;;;;;5105930;28;20266;-78
2021/03/11 00:08:26;;;;;;;67.95;38.15;;;7.30;99.90;;;;;;5108165;28;20221;-78
2021/03/11 00:10:53;;;;;;;68.00;39.05;;;7.30;99.90;;;;;;5105882;28;20257;-78
2021/03/11 00:13:19;;;;;;;69.80;39.35;;;7.30;99.90;;;;;;5105607;28;20201;-78
2021/03/11 00:15:46;;;;;;;68.88;39.47;;;7.30;99.90;;;;;;5109000;28;20283;-77
2021/03/11 00:18:13;;;;;;;69.07;38.97;;;7.30;99.90;;;;;;5108956;28;20201;-78
2021/03/11 00:20:40;;;;;;;67.00;37.75;;;7.30;99.90;;;;;;5108328;28;20208;-79
2021/03/11 00:23:06;;;;;;;73.93;39.15;;;7.30;99.90;;;;;;5108970;28;20568;-79
2021/03/11 00:25:36;;;;;;;69.35;38.30;;;7.30;99.90;;;;;;5106788;27;20694;-79
2021/03/11 00:28:03;;;;;;;68.95;37.55;;;7.40;99.90;;;;;;5109499;28;20681;-78
2021/03/11 00:30:30;;;;;;;72.10;38.17;;;7.40;99.90;;;;;;5105922;28;20201;-78
2021/03/11 00:32:57;;;;;;;68.72;39.42;;;7.40;99.90;;;;;;5110332;28;20658;-79
2021/03/11 00:35:23;;;;;;;70.63;41.00;;;7.40;99.90;;;;;;5106693;28;20672;-78
2021/03/11 00:37:50;;;;;;;69.15;39.15;;;7.40;99.90;;;;;;5109440;28;20212;-78
2021/03/11 00:40:18;;;;;;;70.95;40.15;;;7.40;99.90;;;;;;5107331;28;20196;-78
2021/03/11 00:42:46;;;;;;;66.60;39.60;;;7.40;99.90;;;;;;5107830;28;20316;-77
2021/03/11 00:45:13;;;;;;;72.65;38.92;;;7.40;99.90;;;;;;5109579;27;20203;-78
2021/03/11 00:47:40;;;;;;;68.60;39.08;;;7.40;99.90;;;;;;5105711;28;20213;-79
2021/03/11 00:50:10;;;;;;;69.28;39.90;;;7.40;99.90;;;;;;5109080;28;20280;-78
2021/03/11 00:52:36;;;;;;;66.75;39.33;;;7.40;99.90;;;;;;5105686;28;20209;-78
2021/03/11 00:55:04;;;;;;;66.40;38.28;;;7.40;99.90;;;;;;5106945;28;20204;-79
2021/03/11 00:57:30;;;;;;;67.55;39.15;;;7.50;99.90;;;;;;5106591;28;20238;-79
2021/03/11 00:59:57;;;;;;;69.22;40.20;;;7.50;99.90;;;;;;5101532;27;21473;-77
2021/03/11 01:02:24;;;;;;;68.85;38.53;;;7.50;99.90;;;;;;5108583;28;20217;-78
2021/03/11 01:04:51;;;;;;;71.45;38.38;;;7.60;99.90;;;;;;5105548;28;20232;-79
2021/03/11 01:07:18;;;;;;;65.20;37.75;;;7.60;99.90;;;;;;5107844;28;20362;-79
2021/03/11 01:09:45;;;;;;;67.78;38.50;;;7.60;99.90;;;;;;5103736;28;20201;-79
2021/03/11 01:12:13;;;;;;;63.35;36.35;;;7.60;99.90;;;;;;5108297;28;20208;-79
2021/03/11 01:14:40;;;;;;;61.00;36.92;;;7.70;99.90;;;;;;5105974;28;20220;-79
2021/03/11 01:17:08;;;;;;;59.42;35.00;;;7.70;99.90;;;;;;5117853;27;20205;-78
2021/03/11 01:19:35;;;;;;;63.22;36.00;;;7.80;99.90;;;;;;5106718;28;20223;-78
2021/03/11 01:22:01;;;;;;;61.15;36.58;;;7.80;99.90;;;;;;5105818;28;20226;-78
2021/03/11 01:24:28;;;;;;;60.13;36.63;;;7.90;99.90;;;;;;5106038;28;20714;-78
2021/03/11 01:26:55;;;;;;;61.10;36.60;;;7.90;99.90;;;;;;5106466;28;20250;-79
2021/03/11 01:29:21;;;;;;;64.60;37.72;;;8.00;99.90;;;;;;5104503;28;20204;-79
2021/03/11 01:31:47;;;;;;;64.57;38.88;;;8.00;99.90;;;;;;5106416;28;20201;-78
2021/03/11 01:34:15;;;;;;;63.78;37.50;;;8.00;99.90;;;;;;5106584;28;20194;-78
2021/03/11 01:36:41;;;;;;;65.78;40.80;;;8.10;99.90;;;;;;5108330;28;20204;-78
2021/03/11 01:39:07;;;;;;;68.40;40.97;;;8.10;99.90;;;;;;5103089;28;20226;-78
2021/03/11 01:41:34;;;;;;;60.92;38.88;;;8.10;99.90;;;;;;5105325;28;20209;-79
2021/03/11 01:44:00;;;;;;;68.18;40.28;;;8.10;99.90;;;;;;5105267;28;20205;-79
2021/03/11 01:46:27;;;;;;;65.72;40.00;;;8.20;99.90;;;;;;5107527;28;20246;-78
2021/03/11 01:48:55;;;;;;;72.60;42.35;;;8.20;99.90;;;;;;5106208;28;20197;-78
2021/03/11 01:51:23;;;;;;;70.07;41.67;;;8.20;99.90;;;;;;5106195;28;20281;-79
2021/03/11 01:53:51;;;;;;;72.68;41.40;;;8.20;99.90;;;;;;5105072;28;21506;-79
2021/03/11 01:56:17;;;;;;;71.22;42.90;;;8.20;99.90;;;;;;5108511;28;20281;-77
2021/03/11 01:58:44;;;;;;;73.50;43.72;;;8.20;99.90;;;;;;5106363;28;20202;-78
2021/03/11 02:01:11;;;;;;;74.97;44.15;;;8.30;99.90;;;;;;5106860;28;20899;-78
2021/03/11 02:03:37;;;;;;;68.22;39.53;;;8.30;99.90;;;;;;5104459;28;20216;-79
2021/03/11 02:06:04;;;;;;;71.72;43.17;;;8.30;99.90;;;;;;5107042;28;20201;-78
2021/03/11 02:08:32;;;;;;;68.50;42.78;;;8.30;99.90;;;;;;5105535;28;20245;-79
2021/03/11 02:10:59;;;;;;;64.20;38.92;;;8.30;99.90;;;;;;5104722;28;20205;-77
2021/03/11 02:13:34;;;;;;;65.35;39.63;;;8.30;99.90;;;;;;5105608;28;20246;-79
2021/03/11 02:16:08;;;;;;;63.38;38.72;;;8.40;99.90;;;;;;5103414;28;20224;-78
2021/03/11 02:18:41;;;;;;;62.25;39.10;;;8.40;99.90;;;;;;5104066;28;20439;-79
2021/03/11 02:21:11;;;;;;;62.92;39.17;;;8.50;99.90;;;;;;5107092;28;20204;-78
2021/03/11 02:24:06;;;;;;;57.95;37.97;;;8.50;99.90;;;;;;5103120;28;20256;-79
2021/03/11 02:26:47;;;;;;;55.08;36.55;;;8.50;99.90;;;;;;5105721;28;20205;-80
2021/03/11 02:29:17;;;;;;;50.40;31.25;;;8.60;99.90;;;;;;5106078;28;20208;-78
2021/03/11 02:31:45;;;;;;;48.05;30.85;;;8.60;99.90;;;;;;5103986;28;20208;-79
2021/03/11 02:34:17;;;;;;;44.17;29.00;;;8.70;99.90;;;;;;5105854;28;20821;-80
2021/03/11 02:36:44;;;;;;;44.70;28.33;;;8.70;99.90;;;;;;5107737;28;20201;-78
2021/03/11 02:39:14;;;;;;;37.95;27.08;;;8.80;99.90;;;;;;5106421;28;20221;-78
2021/03/11 02:41:42;;;;;;;37.50;24.30;;;8.80;99.90;;;;;;5108524;28;20684;-79
2021/03/11 02:44:11;;;;;;;36.65;23.55;;;8.90;99.90;;;;;;5108870;28;20605;-79
2021/03/11 02:46:41;;;;;;;33.60;22.58;;;8.90;99.90;;;;;;5108448;28;20279;-78
2021/03/11 02:49:07;;;;;;;33.15;22.10;;;9.00;99.90;;;;;;5106715;28;20205;-79
2021/03/11 02:51:34;;;;;;;35.70;22.20;;;9.00;99.90;;;;;;5109147;28;20569;-77
2021/03/11 02:54:02;;;;;;;32.72;21.58;;;9.10;99.90;;;;;;5109761;27;20238;-79
2021/03/11 02:56:28;;;;;;;30.65;20.52;;;9.10;99.90;;;;;;5108088;28;20209;-81
2021/03/11 02:58:56;;;;;;;31.25;20.02;;;9.10;99.90;;;;;;5107759;28;20205;-78
2021/03/11 03:01:24;;;;;;;32.47;20.00;;;9.20;99.90;;;;;;5107696;28;20217;-79
2021/03/11 03:03:52;;;;;;;31.17;20.15;;;9.20;99.90;;;;;;5110082;27;20585;-78
2021/03/11 03:06:20;;;;;;;31.23;18.95;;;9.20;99.90;;;;;;5109922;28;20220;-82
2021/03/11 03:08:48;;;;;;;30.30;18.70;;;9.20;99.90;;;;;;5109462;28;20236;-77
2021/03/11 03:11:15;;;;;;;28.77;18.75;;;9.30;99.90;;;;;;5107975;28;20213;-79
2021/03/11 03:13:43;;;;;;;26.92;18.90;;;9.30;99.90;;;;;;5109459;28;20205;-79
2021/03/11 03:16:10;;;;;;;28.30;18.67;;;9.30;99.90;;;;;;5109740;28;20209;-78
2021/03/11 03:18:37;;;;;;;29.10;18.67;;;9.30;99.90;;;;;;5110123;28;22910;-79
2021/03/11 03:21:07;;;;;;;26.85;17.50;;;9.30;99.90;;;;;;5110504;27;20197;-80
2021/03/11 03:23:34;;;;;;;28.15;18.42;;;9.40;99.90;;;;;;5109645;28;20209;-79
2021/03/11 03:26:01;;;;;;;28.52;18.70;;;9.40;99.90;;;;;;5108902;28;20665;-79
2021/03/11 03:28:27;;;;;;;30.17;18.17;;;9.40;99.90;;;;;;5106216;28;20219;-79
2021/03/11 03:30:54;;;;;;;29.27;18.40;;;9.40;99.90;;;;;;5110604;27;20201;-79
2021/03/11 03:33:20;;;;;;;28.38;18.50;;;9.40;99.90;;;;;;5110147;28;20258;-79
2021/03/11 03:35:47;;;;;;;29.55;18.30;;;9.40;99.90;;;;;;5110554;28;20205;-80
2021/03/11 03:38:15;;;;;;;28.25;18.88;;;9.40;99.90;;;;;;5108586;28;20215;-79
2021/03/11 03:40:43;;;;;;;26.88;18.63;;;9.40;99.90;;;;;;5109332;28;20253;-78
2021/03/11 03:43:12;;;;;;;32.65;17.42;;;9.40;99.90;;;;;;5110103;28;20213;-78
2021/03/11 03:45:41;;;;;;;26.67;17.10;;;9.40;99.90;;;;;;5107571;28;20201;-77
2021/03/11 03:48:12;;;;;;;27.23;17.65;;;9.40;99.90;;;;;;5108897;28;20284;-79
2021/03/11 03:50:39;;;;;;;25.52;16.40;;;9.40;99.90;;;;;;5107069;27;20201;-77
2021/03/11 03:53:10;;;;;;;30.27;16.92;;;9.40;99.90;;;;;;5111667;28;20192;-77
2021/03/11 03:55:38;;;;;;;29.35;17.27;;;9.50;99.90;;;;;;5107060;28;20204;-78
2021/03/11 03:58:05;;;;;;;28.95;17.38;;;9.50;99.90;;;;;;5109692;27;20220;-77
2021/03/11 04:00:32;;;;;;;32.15;17.02;;;9.50;99.90;;;;;;5108143;28;20201;-76
2021/03/11 04:03:02;;;;;;;29.60;15.90;;;9.50;99.90;;;;;;5106859;28;20243;-78
2021/03/11 04:05:29;;;;;;;39.22;17.60;;;9.50;99.90;;;;;;5107761;28;20665;-78
2021/03/11 04:07:57;;;;;;;27.73;15.80;;;9.50;99.90;;;;;;5106549;28;20232;-77
2021/03/11 04:10:23;;;;;;;28.40;15.93;;;9.50;99.90;;;;;;5107225;28;20193;-78
2021/03/11 04:12:51;;;;;;;31.33;14.98;;;9.50;99.90;;;;;;5107428;28;20204;-77
2021/03/11 04:15:18;;;;;;;27.80;14.82;;;9.50;99.90;;;;;;5108138;28;20201;-77
2021/03/11 04:17:45;;;;;;;26.88;15.10;;;9.50;99.90;;;;;;5105369;28;20201;-78
2021/03/11 04:20:12;;;;;;;27.52;14.18;;;9.50;99.90;;;;;;5108739;28;20213;-78
2021/03/11 04:22:40;;;;;;;25.10;13.52;;;9.60;99.90;;;;;;5108549;28;20213;-79
2021/03/11 04:25:08;;;;;;;25.30;13.63;;;9.60;99.90;;;;;;5105618;28;20213;-77
2021/03/11 04:27:35;;;;;;;31.92;14.20;;;9.70;99.90;;;;;;5108399;28;20197;-77
2021/03/11 04:30:04;;;;;;;24.55;12.05;;;9.70;99.90;;;;;;5103704;27;20212;-77
2021/03/11 04:32:31;;;;;;;25.33;12.30;;;9.70;99.90;;;;;;5107186;28;20200;-78
2021/03/11 04:34:57;;;;;;;25.10;11.40;;;9.80;99.90;;;;;;5108442;28;20564;-78
2021/03/11 04:37:24;;;;;;;22.67;10.40;;;9.90;99.90;;;;;;5104673;28;20213;-77
2021/03/11 04:39:50;;;;;;;24.27;11.32;;;9.90;99.90;;;;;;5107773;28;20284;-77
2021/03/11 04:42:18;;;;;;;18.10;9.23;;;10.00;99.90;;;;;;5107655;28;20232;-78
2021/03/11 04:44:44;;;;;;;22.83;11.00;;;10.00;99.90;;;;;;5108247;28;20204;-78
2021/03/11 04:47:12;;;;;;;25.30;11.30;;;10.00;99.90;;;;;;5106954;28;20266;-77
2021/03/11 04:49:40;;;;;;;22.55;10.77;;;10.00;99.90;;;;;;5107509;28;20201;-77
2021/03/11 04:52:08;;;;;;;22.17;11.25;;;10.00;99.90;;;;;;5104865;28;20201;-78
2021/03/11 04:54:35;;;;;;;27.77;13.10;;;9.90;99.90;;;;;;5106490;28;20751;-78
2021/03/11 04:57:02;;;;;;;29.17;12.85;;;9.90;99.90;;;;;;5107485;28;20612;-79
2021/03/11 04:59:30;;;;;;;29.55;12.93;;;9.80;99.90;;;;;;5106006;28;20209;-78
2021/03/11 05:02:00;;;;;;;22.83;12.32;;;9.80;99.90;;;;;;5108167;28;20213;-79
2021/03/11 05:04:28;;;;;;;29.17;12.88;;;9.80;99.90;;;;;;5106501;28;20212;-78
2021/03/11 05:06:55;;;;;;;25.25;11.50;;;9.70;99.90;;;;;;5106371;28;20205;-78
2021/03/11 05:09:21;;;;;;;28.83;12.70;;;9.70;99.90;;;;;;5105570;28;20220;-78
2021/03/11 05:11:48;;;;;;;26.08;12.85;;;9.70;99.90;;;;;;5107925;28;20242;-78
2021/03/11 05:14:15;;;;;;;24.00;12.55;;;9.70;99.90;;;;;;5105427;28;20205;-78
2021/03/11 05:16:41;;;;;;;22.17;11.85;;;9.70;99.90;;;;;;5107542;28;20615;-79
2021/03/11 05:19:07;;;;;;;24.80;12.40;;;9.70;99.90;;;;;;5104528;28;20254;-78
2021/03/11 05:21:36;;;;;;;24.05;12.70;;;9.70;99.90;;;;;;5107571;28;20689;-80
2021/03/11 05:24:02;;;;;;;22.88;11.85;;;9.70;99.90;;;;;;5105711;28;20204;-78
2021/03/11 05:26:29;;;;;;;28.90;11.82;;;9.70;99.90;;;;;;5107518;28;20213;-79
2021/03/11 05:28:56;;;;;;;24.02;11.30;;;9.70;99.90;;;;;;5106488;28;20209;-79
2021/03/11 05:31:22;;;;;;;23.92;9.57;;;9.70;99.90;;;;;;5119349;27;20227;-79
2021/03/11 05:33:49;;;;;;;20.83;9.10;;;9.70;99.90;;;;;;5106636;28;20201;-78
2021/03/11 05:36:15;;;;;;;24.25;7.72;;;9.70;99.90;;;;;;5105372;28;20670;-78
2021/03/11 05:38:44;;;;;;;26.90;7.25;;;9.70;99.90;;;;;;5105765;28;20198;-79
2021/03/11 05:41:12;;;;;;;25.67;6.72;;;9.80;99.90;;;;;;5107006;28;20205;-77
2021/03/11 05:43:40;;;;;;;24.52;6.30;;;9.80;99.90;;;;;;5103461;28;20286;-78
2021/03/11 05:46:09;;;;;;;25.35;5.78;;;9.80;99.90;;;;;;5107269;28;20610;-77
2021/03/11 05:48:39;;;;;;;24.90;6.10;;;9.80;99.90;;;;;;5104938;28;20209;-79
2021/03/11 05:51:06;;;;;;;26.08;6.70;;;9.90;99.90;;;;;;5106403;28;20212;-79
2021/03/11 05:53:33;;;;;;;24.13;5.88;;;9.90;99.90;;;;;;5103474;28;20221;-79
2021/03/11 05:56:01;;;;;;;29.13;5.50;;;9.90;99.90;;;;;;5106824;28;20189;-77
2021/03/11 05:58:27;;;;;;;25.42;5.95;;;10.00;99.90;;;;;;5106429;28;20194;-78
2021/03/11 06:00:53;;;;;;;32.50;5.85;;;10.00;99.90;;;;;;5106081;28;20213;-77
2021/03/11 06:03:23;;;;;;;32.03;5.05;;;10.10;99.90;;;;;;5103078;28;20217;-78
2021/03/11 06:05:50;;;;;;;36.60;5.88;;;10.00;99.90;;;;;;5106905;28;20212;-76
2021/03/11 06:08:22;;;;;;;34.40;5.45;;;10.10;99.90;;;;;;5102766;28;20231;-79
2021/03/11 06:10:52;;;;;;;28.77;4.70;;;10.10;99.90;;;;;;5105094;27;20246;-78
2021/03/11 06:13:21;;;;;;;39.20;5.70;;;10.20;99.90;;;;;;5105083;28;21069;-77
2021/03/11 06:15:50;;;;;;;31.77;5.13;;;10.20;99.90;;;;;;5102870;28;20211;-77
2021/03/11 06:18:18;;;;;;;40.15;5.35;;;10.20;99.90;;;;;;5106527;28;20213;-78
2021/03/11 06:20:45;;;;;;;44.75;5.90;;;10.20;99.90;;;;;;5105724;28;20205;-77
2021/03/11 06:23:11;;;;;;;50.55;6.57;;;10.20;99.90;;;;;;5105545;28;20579;-78
2021/03/11 06:25:39;;;;;;;46.30;6.38;;;10.30;99.90;;;;;;5104406;28;20218;-75
2021/03/11 06:28:06;;;;;;;30.48;4.88;;;10.30;99.90;;;;;;5106192;28;20231;-76
2021/03/11 06:30:34;;;;;;;47.97;5.78;;;10.30;99.90;;;;;;5100472;28;20229;-76
2021/03/11 06:33:02;;;;;;;39.63;5.43;;;10.30;99.90;;;;;;5106793;28;20201;-79
2021/03/11 06:35:29;;;;;;;39.35;5.82;;;10.30;99.90;;;;;;5104248;28;20197;-78
2021/03/11 06:37:56;;;;;;;39.85;5.50;;;10.30;99.90;;;;;;5104670;28;20200;-76
2021/03/11 06:40:24;;;;;;;36.47;6.00;;;10.30;99.90;;;;;;5103676;28;20208;-77
2021/03/11 06:42:52;;;;;;;48.67;6.45;;;10.30;99.90;;;;;;5104705;27;20216;-77
2021/03/11 06:45:24;;;;;;;39.83;5.70;;;10.30;99.90;;;;;;5101914;28;20205;-78
2021/03/11 06:47:52;;;;;;;40.15;6.40;;;10.30;99.90;;;;;;5103949;28;20717;-79
2021/03/11 06:50:22;;;;;;;53.63;7.82;;;10.30;99.90;;;;;;5102539;28;21013;-80
2021/03/11 06:53:04;;;;;;;53.20;8.20;;;10.30;99.90;;;;;;5115970;28;20232;-79
2021/03/11 06:55:31;;;;;;;51.42;8.30;;;10.30;99.90;;;;;;5102689;28;20460;-79
2021/03/11 06:58:15;;;;;;;61.83;8.85;;;10.50;99.90;;;;;;5102160;28;20441;-77
2021/03/11 07:00:41;;;;;;;59.80;10.20;;;10.80;99.90;;;;;;5102040;28;20412;-79
2021/03/11 07:03:08;;;;;;;66.20;9.43;;;10.90;99.90;;;;;;5105803;28;20431;-77
2021/03/11 07:05:38;;;;;;;65.35;9.45;;;11.00;99.90;;;;;;5100143;28;20467;-78
2021/03/11 07:08:07;;;;;;;60.40;9.73;;;11.00;99.90;;;;;;5103876;28;20420;-78
2021/03/11 07:10:35;;;;;;;66.03;10.47;;;11.10;99.90;;;;;;5103231;28;20435;-78
2021/03/11 07:13:02;;;;;;;71.88;11.10;;;11.00;99.90;;;;;;5101274;28;20423;-77
2021/03/11 07:15:30;;;;;;;71.40;11.27;;;11.10;99.90;;;;;;5102850;28;20450;-77
2021/03/11 07:17:58;;;;;;;71.40;11.37;;;11.10;99.90;;;;;;5097009;28;20539;-82
2021/03/11 07:20:26;;;;;;;75.40;12.02;;;11.10;99.90;;;;;;5102981;28;20419;-80
2021/03/11 07:23:08;;;;;;;82.18;12.77;;;11.10;99.90;;;;;;5104104;28;20420;-83
2021/03/11 07:25:37;;;;;;;78.90;12.75;;;11.10;99.90;;;;;;5110270;28;20476;-81
2021/03/11 07:28:05;;;;;;;76.03;12.38;;;11.10;99.90;;;;;;5108427;27;20923;-80
2021/03/11 07:30:32;;;;;;;82.10;12.20;;;11.00;99.90;;;;;;5107832;27;20424;-79
2021/03/11 07:33:01;;;;;;;83.80;12.60;;;11.00;99.90;;;;;;5108286;28;20415;-77
2021/03/11 07:35:30;;;;;;;84.30;12.80;;;11.00;99.90;;;;;;5107214;28;20491;-77
2021/03/11 07:38:00;;;;;;;85.35;13.98;;;11.10;99.90;;;;;;5105632;27;20787;-80
2021/03/11 07:40:28;;;;;;;81.65;13.23;;;11.00;99.90;;;;;;5108790;28;20461;-77
2021/03/11 07:42:55;;;;;;;85.82;12.70;;;11.00;99.90;;;;;;5109439;28;20438;-77
2021/03/11 07:45:26;;;;;;;77.47;12.00;;;11.10;99.90;;;;;;5107256;28;21601;-79
2021/03/11 07:47:56;;;;;;;69.65;11.80;;;11.10;99.90;;;;;;5106602;28;20505;-82
2021/03/11 07:50:23;;;;;;;74.93;12.20;;;11.00;99.90;;;;;;5107334;28;20428;-80
2021/03/11 07:52:51;;;;;;;74.57;12.10;;;11.10;99.90;;;;;;5105228;27;20412;-76
2021/03/11 07:55:18;;;;;;;74.95;11.63;;;11.10;99.90;;;;;;5104504;28;20811;-77
2021/03/11 07:57:47;;;;;;;75.22;11.55;;;11.10;99.90;;;;;;5104851;28;20476;-80
2021/03/11 08:00:15;;;;;;;78.25;11.75;;;11.20;99.90;;;;;;5105971;27;20423;-78
2021/03/11 08:02:52;;;;;;;72.57;11.18;;;11.20;99.90;;;;;;5105450;27;20904;-78
2021/03/11 08:05:26;;;;;;;78.60;11.70;;;11.20;99.90;;;;;;5107590;27;20427;-81
2021/03/11 08:08:17;;;;;;;71.07;11.67;;;11.20;99.90;;;;;;5103705;28;20428;-80
2021/03/11 08:10:45;;;;;;;71.30;11.32;;;11.20;99.90;;;;;;5105053;27;20431;-79
2021/03/11 08:13:33;;;;;;;88.05;12.45;;;11.30;99.90;;;;;;5108402;28;20416;-78
2021/03/11 08:16:00;;;;;;;86.78;13.20;;;11.30;99.90;;;;;;5105731;27;20500;-79
2021/03/11 08:18:40;;;;;;;76.65;12.50;;;11.30;99.90;;;;;;5105868;27;20435;-77
2021/03/11 08:21:43;;;;;;;79.70;12.48;;;11.30;99.90;;;;;;5103177;27;20510;-77
2021/03/11 08:24:39;;;;;;;81.07;11.98;;;11.30;99.90;;;;;;5103340;28;21034;-77
2021/03/11 08:27:43;;;;;;;80.03;12.90;;;11.30;99.90;;;;;;5094394;28;20830;-79
2021/03/11 08:30:50;;;;;;;82.38;13.05;;;11.30;99.90;;;;;;5101579;27;23043;-82
2021/03/11 08:33:55;;;;;;;85.15;13.23;;;11.30;99.80;;;;;;5104833;28;20426;-82
2021/03/11 08:36:43;;;;;;;82.45;13.82;;;11.40;99.70;;;;;;5106663;27;20432;-79
2021/03/11 08:39:34;;;;;;;73.93;12.20;;;11.40;99.60;;;;;;5110277;27;20197;-78
2021/03/11 08:42:47;;;;;;;83.50;12.75;;;11.00;99.90;;;;;;5102425;28;20216;-78
2021/03/11 08:45:59;;;;;;;84.68;12.07;;;10.80;99.90;;;;;;5104989;28;20219;-79
2021/03/11 08:48:26;;;;;;;88.80;12.70;;;10.80;99.90;;;;;;5104642;28;20208;-78
2021/03/11 08:50:53;;;;;;;92.07;14.10;;;10.70;99.90;;;;;;5100561;28;20412;-77
2021/03/11 08:53:48;;;;;;;88.68;14.75;;;10.90;99.90;;;;;;5100393;27;20424;-81
2021/03/11 08:56:36;;;;;;;96.30;14.68;;;11.10;99.80;;;;;;5102340;28;20908;-81
2021/03/11 08:59:04;;;;;;;82.33;13.10;;;11.20;99.30;;;;;;5104792;28;20791;-81
2021/03/11 09:01:40;;;;;;;87.40;14.25;;;11.30;98.90;;;;;;5106665;28;20921;-81
2021/03/11 09:04:34;;;;;;;81.10;13.75;;;11.40;98.80;;;;;;5107534;28;21013;-81
2021/03/11 09:07:02;;;;;;;87.90;13.70;;;11.50;98.40;;;;;;5107734;28;20784;-81
2021/03/11 09:09:34;;;;;;;87.13;13.80;;;11.50;98.10;;;;;;5101942;28;20537;-80
2021/03/11 09:12:04;;;;;;;79.45;13.30;;;11.60;98.10;;;;;;5107225;28;20444;-80
2021/03/11 09:14:30;;;;;;;84.87;14.67;;;11.60;98.00;;;;;;5105928;28;20432;-83
2021/03/11 09:17:09;;;;;;;80.85;12.75;;;11.60;97.70;;;;;;5109504;27;20451;-81
2021/03/11 09:19:41;;;;;;;81.25;14.02;;;11.30;98.20;;;;;;5105703;27;20481;-82
2021/03/11 09:22:26;;;;;;;84.13;13.57;;;11.40;98.10;;;;;;5106474;28;20420;-80
2021/03/11 09:25:23;;;;;;;87.97;13.45;;;11.50;97.90;;;;;;5105749;28;20424;-79
2021/03/11 09:27:54;;;;;;;85.60;13.85;;;11.50;97.70;;;;;;5120471;27;20465;-79
2021/03/11 09:30:23;;;;;;;83.70;13.98;;;11.60;97.50;;;;;;5103083;27;20426;-79
2021/03/11 09:32:50;;;;;;;87.30;14.63;;;11.50;97.50;;;;;;5105180;27;20422;-83
2021/03/11 09:35:17;;;;;;;89.20;13.50;;;11.50;97.30;;;;;;5107392;28;20423;-82
2021/03/11 09:37:52;;;;;;;84.82;14.20;;;11.50;97.20;;;;;;5104191;28;20461;-78
2021/03/11 09:40:37;;;;;;;81.15;13.63;;;11.50;97.10;;;;;;5103083;28;20416;-78
2021/03/11 09:43:26;;;;;;;87.57;15.50;;;11.50;97.10;;;;;;5104537;27;20896;-79
2021/03/11 09:45:57;;;;;;;86.22;13.95;;;11.40;97.30;;;;;;5103254;27;22840;-78
2021/03/11 09:48:27;;;;;;;87.20;13.50;;;11.40;97.30;;;;;;5104178;28;20488;-78
2021/03/11 09:51:03;;;;;;;86.88;13.90;;;11.30;97.40;;;;;;5101885;28;20905;-79
2021/03/11 09:53:41;;;;;;;89.07;14.38;;;11.30;97.30;;;;;;5107852;28;20420;-79
2021/03/11 09:56:12;;;;;;;85.38;13.10;;;11.30;97.30;;;;;;5101110;28;20448;-79
2021/03/11 09:58:57;;;;;;;86.03;14.13;;;11.30;97.70;;;;;;5105955;28;20480;-79
2021/03/11 10:01:30;;;;;;;99.47;14.25;;;11.20;98.10;;;;;;5101104;27;20427;-79
2021/03/11 10:03:59;;;;;;;97.18;14.52;;;11.20;98.90;;;;;;5104559;28;20431;-78
2021/03/11 10:06:27;;;;;;;89.03;14.63;;;11.00;99.30;;;;;;5100982;28;20520;-79
2021/03/11 10:08:55;;;;;;;99.72;15.38;;;10.90;99.90;;;;;;5103717;28;20451;-77
2021/03/11 10:11:24;;;;;;;97.78;14.70;;;10.80;99.90;;;;;;5104601;27;20431;-79
2021/03/11 10:13:53;;;;;;;102.22;15.38;;;10.70;99.90;;;;;;5105096;28;20502;-80
2021/03/11 10:16:42;;;;;;;101.45;15.57;;;10.60;99.90;;;;;;5104048;28;20912;-79
2021/03/11 10:19:12;;;;;;;106.60;16.15;;;10.50;99.90;;;;;;5105047;28;20419;-84
2021/03/11 10:21:51;;;;;;;109.88;15.98;;;10.50;99.90;;;;;;5102383;28;20503;-83
2021/03/11 10:24:32;;;;;;;101.77;16.00;;;10.40;99.90;;;;;;5106147;28;20424;-77
2021/03/11 10:26:58;;;;;;;97.28;15.15;;;10.30;99.90;;;;;;5100524;28;20433;-77
2021/03/11 10:29:28;;;;;;;93.90;14.52;;;10.30;99.90;;;;;;5105085;28;21272;-80
2021/03/11 10:31:57;;;;;;;95.60;14.88;;;10.30;99.90;;;;;;5105592;28;20415;-81
2021/03/11 10:34:24;;;;;;;93.05;15.02;;;10.30;99.90;;;;;;5104077;28;20420;-77
2021/03/11 10:36:59;;;;;;;102.43;15.43;;;10.30;99.90;;;;;;5102197;28;20423;-81
2021/03/11 10:39:26;;;;;;;103.68;16.13;;;10.30;99.90;;;;;;5103918;28;20420;-82
2021/03/11 10:42:00;;;;;;;107.05;16.25;;;10.30;99.90;;;;;;5102779;28;20920;-81
2021/03/11 10:44:30;;;;;;;99.80;14.50;;;10.20;99.90;;;;;;5102033;28;20472;-80
2021/03/11 10:47:14;;;;;;;104.40;15.30;;;10.10;99.90;;;;;;5104161;28;20492;-80
2021/03/11 10:49:42;;;;;;;104.67;14.97;;;10.00;99.90;;;;;;5103951;28;20812;-79
2021/03/11 10:52:09;;;;;;;103.05;15.52;;;9.90;99.90;;;;;;5104293;28;20482;-81
2021/03/11 10:54:36;;;;;;;106.22;15.35;;;9.80;99.90;;;;;;5104425;28;20702;-81
2021/03/11 10:57:08;;;;;;;126.37;16.17;;;9.70;99.90;;;;;;5104504;28;20434;-80
2021/03/11 10:59:50;;;;;;;112.93;16.38;;;9.60;99.90;;;;;;5108996;28;20431;-83
2021/03/11 11:02:17;;;;;;;114.95;15.20;;;9.60;99.90;;;;;;5109270;27;20937;-82
2021/03/11 11:04:45;;;;;;;119.10;15.88;;;9.50;99.90;;;;;;5108490;27;20424;-81
2021/03/11 11:07:11;;;;;;;110.80;16.17;;;9.40;99.90;;;;;;5111202;28;20415;-82
2021/03/11 11:09:39;;;;;;;116.28;16.00;;;9.40;99.90;;;;;;5108585;28;20427;-82
2021/03/11 11:12:08;;;;;;;118.57;16.33;;;9.40;99.90;;;;;;5109393;28;20435;-80
2021/03/11 11:14:34;;;;;;;119.47;16.52;;;9.40;99.90;;;;;;5104816;27;20436;-81
2021/03/11 11:17:01;;;;;;;114.20;16.13;;;9.30;99.90;;;;;;5106139;28;22360;-82
2021/03/11 11:19:27;;;;;;;109.95;15.70;;;9.40;99.90;;;;;;5106399;27;20848;-81
2021/03/11 11:21:54;;;;;;;114.13;16.50;;;9.40;99.90;;;;;;5103301;28;20458;-79
2021/03/11 11:24:21;;;;;;;122.57;16.00;;;9.50;99.90;;;;;;5108750;28;20428;-79
2021/03/11 11:26:47;;;;;;;105.30;15.80;;;9.50;99.90;;;;;;5103320;28;20435;-78
2021/03/11 11:29:14;;;;;;;104.57;15.65;;;9.50;99.90;;;;;;5108472;28;20513;-79
2021/03/11 11:31:40;;;;;;;102.80;15.00;;;9.60;99.90;;;;;;5104528;27;20425;-78
2021/03/11 11:34:09;;;;;;;106.90;15.77;;;9.60;99.90;;;;;;5103485;27;20459;-79
2021/03/11 11:36:36;;;;;;;90.63;14.52;;;9.70;99.90;;;;;;5104345;27;20422;-78
2021/03/11 11:39:04;;;;;;;94.57;14.63;;;9.80;99.90;;;;;;5106869;27;20435;-78
2021/03/11 11:41:31;;;;;;;92.85;13.95;;;9.80;99.90;;;;;;5107784;28;20488;-78
2021/03/11 11:43:57;;;;;;;101.35;14.07;;;9.90;99.90;;;;;;5105041;28;20438;-79
2021/03/11 11:46:23;;;;;;;80.43;12.18;;;10.00;99.90;;;;;;5107478;27;20756;-78
2021/03/11 11:48:50;;;;;;;89.32;12.52;;;9.70;99.90;;;;;;5109347;28;20225;-78
2021/03/11 11:51:16;;;;;;;91.57;12.07;;;9.60;99.90;;;;;;5105157;28;20209;-77
2021/03/11 11:53:43;;;;;;;90.57;11.57;;;9.50;99.90;;;;;;5108463;28;20539;-80
2021/03/11 11:56:10;;;;;;;87.00;11.75;;;9.40;99.90;;;;;;5105289;27;21145;-77
2021/03/11 11:58:43;;;;;;;86.07;11.75;;;9.40;99.90;;;;;;5102871;28;20571;-79
2021/03/11 12:01:10;;;;;;;92.43;13.20;;;9.30;99.90;;;;;;5100660;27;20254;-78
2021/03/11 12:03:36;;;;;;;91.68;12.68;;;9.30;99.90;;;;;;5102737;28;20255;-76
2021/03/11 12:06:03;;;;;;;90.50;12.13;;;9.20;99.90;;;;;;5106069;27;20193;-78
2021/03/11 12:08:29;;;;;;;80.93;11.20;;;9.20;99.90;;;;;;5107987;28;20232;-79
2021/03/11 12:10:56;;;;;;;80.03;10.93;;;9.20;99.90;;;;;;5109620;28;20712;-78
2021/03/11 12:13:23;;;;;;;86.20;11.23;;;9.30;99.90;;;;;;5107681;28;20190;-79
2021/03/11 12:15:50;;;;;;;79.00;10.88;;;9.30;99.90;;;;;;5108321;27;20566;-77
2021/03/11 12:18:16;;;;;;;82.03;10.57;;;9.40;99.90;;;;;;5107600;28;20312;-81
2021/03/11 12:20:43;;;;;;;77.55;10.82;;;9.40;99.90;;;;;;5106140;28;20578;-78
2021/03/11 12:23:10;;;;;;;74.68;10.60;;;9.50;99.90;;;;;;5108336;27;20677;-79
2021/03/11 12:25:36;;;;;;;78.13;10.75;;;9.50;99.90;;;;;;5108460;28;20217;-79
2021/03/11 12:28:03;;;;;;;67.75;9.93;;;9.50;99.90;;;;;;5105829;28;20201;-78
2021/03/11 12:30:32;;;;;;;69.90;11.63;;;9.60;99.90;;;;;;5105592;28;20584;-78
2021/03/11 12:32:58;;;;;;;80.13;11.20;;;9.70;99.90;;;;;;5104331;27;20616;-79
2021/03/11 12:35:26;;;;;;;87.50;11.38;;;9.70;99.90;;;;;;5105252;28;20575;-77
2021/03/11 12:37:53;;;;;;;93.47;11.50;;;9.70;99.90;;;;;;5108958;28;20707;-80
2021/03/11 12:40:21;;;;;;;76.63;11.30;;;9.80;99.90;;;;;;5108535;28;20661;-80
2021/03/11 12:42:48;;;;;;;72.65;11.05;;;9.90;99.90;;;;;;5108178;28;20213;-80
2021/03/11 12:45:16;;;;;;;73.80;9.95;;;9.90;99.90;;;;;;5107497;28;20197;-77
2021/03/11 12:47:44;;;;;;;68.35;9.70;;;10.00;99.90;;;;;;5106606;28;20221;-80